Cayuga, New York
Current Conditions -  °F | °C
As of 10:53 AM on Friday 19 Dec 2014 (Local Time) from KPEO Reporting Station
Overcast Overcast  
Wind Chill: 18°   Ceiling: 1200
Heat Index: 25°   Visibility: 10mi
Dew Point: 20°   Wind: 6mph
Humidity: 81%   Direction: 290°WNW
Pressure: 30.14"   Gusts: NA
Location:  42.92°N, 76.73°W
Report Text: KPEO 191553Z AUTO 29005KT 10SM OVC012 M04/M07 A3014 RMK AO2 SLP218 T10391067
Loading
Personal Weather Stations






























Interactive Weather Map New forecast layout! Learn more

10-Day Weather Forecast

Advertisements
Track Severe Weather on mobile